aviador You're here:

HSSS Decoded Metar

KHARTOUM in SUDAN
Report Time2018-06-25 06:00:00
UTC Time2018-06-25 06:09:50
Flight Rules vfr VFR
Wind180° at 17 kt
W.Decomp.*RWY 18: 17.0 kt HW 0.6 kt LCW
W.Rank180° ranks 5
Current wind is above 180° avg. (8.7)
Visibility9999 m
Phenomena:N/A
Clouds:Few 050 Hf
Broken 140 Hf
Expected CloudBase > 3,200 ft AGL from Temp-Dew spread
Ceiling14,000 ft
Temp25°C (ISA +12)
Dew Point17°C (61% RH)
AAT21.2°C
QNH1010 hPa
Density Alt3,051 ft
Elevation1,247 ft
Report Wrong Elevation
Raw Report
METAR HSSS 250600Z 18017KT 9999 FEW050 BKN140 25/17 Q1010 NOSIG=####018000159####
SALV32 EVRA 250550

Extra information for HSSS:More info

Metar Taf Metar & Taf Last 4 Metars F.Rules Stats Wind Profile Meteogram Temp Stats Airport Information Weather charts Add Link Nearby VenuesMetar ALERT Operation Metar Decoded Social comments